createdAt,value
2019-03-28T00:02:15.096Z,9.70
2019-03-28T00:04:42.510Z,9.30
2019-03-28T00:07:09.894Z,9.30
2019-03-28T00:09:37.310Z,9.30
2019-03-28T00:12:04.689Z,9.20
2019-03-28T00:14:32.103Z,9.50
2019-03-28T00:16:59.489Z,9.40
2019-03-28T00:19:26.917Z,10.00
2019-03-28T00:21:54.298Z,9.63
2019-03-28T00:24:32.394Z,9.93
2019-03-28T00:26:59.781Z,10.30
2019-03-28T00:29:27.198Z,8.27
2019-03-28T00:31:54.586Z,8.63
2019-03-28T00:34:21.998Z,9.43
2019-03-28T00:36:49.372Z,8.50
2019-03-28T00:39:16.822Z,10.23
2019-03-28T00:41:44.181Z,9.30
2019-03-28T00:44:11.596Z,10.67
2019-03-28T00:46:38.985Z,8.80
2019-03-28T00:49:06.396Z,10.10
2019-03-28T00:51:33.797Z,10.20
2019-03-28T00:54:01.217Z,10.50
2019-03-28T00:56:28.603Z,9.77
2019-03-28T00:58:56.009Z,9.50
2019-03-28T01:01:23.401Z,10.13
2019-03-28T01:03:50.898Z,9.20
2019-03-28T01:06:18.282Z,9.07
2019-03-28T01:08:45.697Z,10.63
2019-03-28T01:11:13.087Z,8.83
2019-03-28T01:13:40.492Z,9.20
2019-03-28T01:16:07.951Z,8.40
2019-03-28T01:18:35.353Z,8.90
2019-03-28T01:21:02.735Z,9.07
2019-03-28T01:23:30.124Z,10.20
2019-03-28T01:25:57.545Z,8.63
2019-03-28T01:28:24.930Z,9.80
2019-03-28T01:30:52.414Z,8.30
2019-03-28T01:33:19.800Z,9.67
2019-03-28T01:35:47.222Z,9.17
2019-03-28T01:38:14.601Z,8.50
2019-03-28T01:40:42.022Z,9.07
2019-03-28T01:43:09.407Z,8.93
2019-03-28T01:45:36.822Z,8.60
2019-03-28T01:48:04.275Z,8.60
2019-03-28T01:50:31.756Z,8.63
2019-03-28T01:52:59.146Z,9.63
2019-03-28T01:55:26.548Z,8.47
2019-03-28T01:57:53.928Z,8.70
2019-03-28T02:00:21.336Z,8.50
2019-03-28T02:02:48.722Z,10.27
2019-03-28T02:05:16.138Z,9.47
2019-03-28T02:07:43.516Z,8.73
2019-03-28T02:10:11.102Z,8.17
2019-03-28T02:12:38.490Z,7.50
2019-03-28T02:15:07.444Z,8.20
2019-03-28T02:17:34.828Z,7.90
2019-03-28T02:20:02.251Z,9.47
2019-03-28T02:22:29.698Z,8.17
2019-03-28T02:24:57.108Z,7.37
2019-03-28T02:27:24.773Z,7.80
2019-03-28T02:29:52.412Z,5.67
2019-03-28T02:32:19.967Z,6.40
2019-03-28T02:34:49.180Z,8.47
2019-03-28T02:37:16.410Z,6.40
2019-03-28T02:39:43.822Z,6.60
2019-03-28T02:42:11.203Z,7.20
2019-03-28T02:44:38.613Z,7.63
2019-03-28T02:47:06.019Z,7.20
2019-03-28T02:49:33.394Z,7.30
2019-03-28T02:52:00.802Z,8.00
2019-03-28T02:54:28.187Z,7.30
2019-03-28T02:56:55.598Z,7.77
2019-03-28T02:59:22.978Z,8.23
2019-03-28T03:01:50.393Z,7.00
2019-03-28T03:04:17.861Z,8.33
2019-03-28T03:06:45.261Z,8.53
2019-03-28T03:09:12.658Z,7.87
2019-03-28T03:11:42.819Z,7.90
2019-03-28T03:14:09.099Z,7.70
2019-03-28T03:16:36.513Z,8.47
2019-03-28T03:19:03.978Z,8.13
2019-03-28T03:21:31.377Z,8.80
2019-03-28T03:23:58.763Z,9.23
2019-03-28T03:26:26.177Z,8.10
2019-03-28T03:28:53.571Z,8.93
2019-03-28T03:31:22.078Z,8.90
2019-03-28T03:33:49.664Z,8.80
2019-03-28T03:36:17.185Z,8.27
2019-03-28T03:38:44.534Z,9.33
2019-03-28T03:41:11.943Z,8.60
2019-03-28T03:43:39.320Z,7.77
2019-03-28T03:46:06.765Z,8.70
2019-03-28T03:48:34.144Z,8.80
2019-03-28T03:51:01.564Z,9.73
2019-03-28T03:53:28.951Z,10.50
2019-03-28T03:55:56.365Z,8.80
2019-03-28T03:58:23.750Z,9.10
2019-03-28T04:00:51.161Z,8.93
2019-03-28T04:03:18.548Z,9.37
2019-03-28T04:05:45.953Z,9.90
2019-03-28T04:08:13.343Z,8.80
2019-03-28T04:10:40.779Z,10.70
2019-03-28T04:13:08.155Z,8.70
2019-03-28T04:15:35.545Z,10.03
2019-03-28T04:18:03.031Z,10.53
2019-03-28T04:20:30.418Z,8.50
2019-03-28T04:22:57.834Z,9.27
2019-03-28T04:25:25.220Z,10.37
2019-03-28T04:27:52.641Z,10.13
2019-03-28T04:30:20.026Z,9.77
2019-03-28T04:32:47.444Z,10.10
2019-03-28T04:35:14.823Z,9.10
2019-03-28T04:37:42.241Z,8.27
2019-03-28T04:40:09.686Z,9.07
2019-03-28T04:42:37.144Z,8.83
2019-03-28T04:45:05.569Z,9.90
2019-03-28T04:47:33.081Z,9.47
2019-03-28T04:50:00.474Z,8.23
2019-03-28T04:52:27.896Z,9.40
2019-03-28T04:54:55.429Z,9.40
2019-03-28T04:57:22.989Z,8.03
2019-03-28T04:59:50.369Z,8.70
2019-03-28T05:02:17.781Z,9.43
2019-03-28T05:04:45.165Z,9.00
2019-03-28T05:07:12.578Z,9.30
2019-03-28T05:09:40.054Z,8.90
2019-03-28T05:12:07.492Z,8.50
2019-03-28T05:14:34.880Z,8.40
2019-03-28T05:17:02.266Z,10.30
2019-03-28T05:19:29.736Z,9.70
2019-03-28T05:21:57.120Z,8.70
2019-03-28T05:24:25.583Z,9.40
2019-03-28T05:26:53.029Z,9.63
2019-03-28T05:29:20.455Z,9.50
2019-03-28T05:31:47.832Z,10.10
2019-03-28T05:34:15.237Z,12.90
2019-03-28T05:36:42.654Z,10.80
2019-03-28T05:39:10.099Z,11.10
2019-03-28T05:41:37.509Z,11.17
2019-03-28T05:44:04.987Z,11.30
2019-03-28T05:46:32.474Z,12.73
2019-03-28T05:48:59.949Z,11.97
2019-03-28T05:51:27.421Z,10.70
2019-03-28T05:53:54.890Z,9.03
2019-03-28T05:56:22.336Z,10.30
2019-03-28T05:58:49.729Z,9.23
2019-03-28T06:01:17.103Z,9.13
2019-03-28T06:03:44.573Z,9.73
2019-03-28T06:06:11.970Z,9.87
2019-03-28T06:08:39.396Z,9.13
2019-03-28T06:11:06.813Z,9.10
2019-03-28T06:13:34.277Z,9.30
2019-03-28T06:16:01.645Z,8.80
2019-03-28T06:18:29.054Z,9.00
2019-03-28T06:20:59.439Z,9.43
2019-03-28T06:23:25.558Z,9.27
2019-03-28T06:25:52.957Z,8.60
2019-03-28T06:28:20.370Z,8.90
2019-03-28T06:30:47.769Z,10.63
2019-03-28T06:33:15.189Z,9.20
2019-03-28T06:35:42.627Z,21.97
2019-03-28T06:38:10.067Z,13.97
2019-03-28T06:40:37.465Z,16.10
2019-03-28T06:43:04.849Z,12.80
2019-03-28T06:45:32.261Z,13.53
2019-03-28T06:47:59.701Z,15.67
2019-03-28T06:50:27.183Z,15.07
2019-03-28T06:52:54.576Z,11.90
2019-03-28T06:55:24.048Z,11.43
2019-03-28T06:57:51.026Z,12.53
2019-03-28T07:00:18.513Z,10.67
2019-03-28T07:02:45.892Z,11.30
2019-03-28T07:05:13.390Z,11.40
2019-03-28T07:07:40.784Z,13.57
2019-03-28T07:10:08.971Z,28.87
2019-03-28T07:12:36.381Z,12.57
2019-03-28T07:15:05.257Z,12.77
2019-03-28T07:17:32.651Z,11.27
2019-03-28T07:20:00.065Z,12.83
2019-03-28T07:22:27.455Z,10.67
2019-03-28T07:24:54.871Z,11.30
2019-03-28T07:27:22.262Z,10.30
2019-03-28T07:29:51.010Z,10.90
2019-03-28T07:32:18.792Z,10.48
2019-03-28T07:34:46.207Z,11.33
2019-03-28T07:37:13.602Z,10.77
2019-03-28T07:39:41.019Z,10.80
2019-03-28T07:42:08.410Z,11.20
2019-03-28T07:44:37.617Z,11.10
2019-03-28T07:47:05.057Z,13.10
2019-03-28T07:49:32.467Z,11.10
2019-03-28T07:51:59.890Z,10.87
2019-03-28T07:54:27.281Z,10.23
2019-03-28T07:56:54.666Z,9.83
2019-03-28T07:59:22.048Z,10.50
2019-03-28T08:01:49.473Z,10.10
2019-03-28T08:04:16.857Z,11.23
2019-03-28T08:06:49.607Z,10.60
2019-03-28T08:09:13.373Z,10.43
2019-03-28T08:11:40.792Z,10.73
2019-03-28T08:14:08.177Z,10.03
2019-03-28T08:16:35.594Z,11.13
2019-03-28T08:19:02.986Z,10.37
2019-03-28T08:21:30.469Z,18.33
2019-03-28T08:23:57.859Z,12.13
2019-03-28T08:26:25.264Z,9.60
2019-03-28T08:28:52.652Z,10.47
2019-03-28T08:31:20.141Z,9.57
2019-03-28T08:33:47.518Z,8.93
2019-03-28T08:36:14.927Z,9.53
2019-03-28T08:38:42.578Z,10.37
2019-03-28T08:41:10.076Z,9.40
2019-03-28T08:43:37.458Z,9.87
2019-03-28T08:46:04.869Z,8.93
2019-03-28T08:48:32.421Z,10.03
2019-03-28T08:50:59.912Z,10.47
2019-03-28T08:53:27.306Z,10.23
2019-03-28T08:55:54.727Z,10.70
2019-03-28T08:58:22.108Z,10.07
2019-03-28T09:00:52.664Z,11.70
2019-03-28T09:03:18.568Z,10.63
2019-03-28T09:05:45.988Z,10.57
2019-03-28T09:08:13.372Z,11.37
2019-03-28T09:10:40.788Z,8.17
2019-03-28T09:13:08.170Z,9.30
2019-03-28T09:15:43.733Z,9.53
2019-03-28T09:18:04.804Z,9.20
2019-03-28T09:20:32.242Z,9.60
2019-03-28T09:22:59.682Z,9.37
2019-03-28T09:25:27.096Z,7.37
2019-03-28T09:27:54.479Z,8.93
2019-03-28T09:30:47.485Z,7.30
2019-03-28T09:33:04.775Z,7.87
2019-03-28T09:35:32.290Z,7.87
2019-03-28T09:37:59.701Z,7.90
2019-03-28T09:40:27.090Z,7.97
2019-03-28T09:42:54.505Z,8.60
2019-03-28T09:45:21.889Z,8.87
2019-03-28T09:47:49.300Z,7.77
2019-03-28T09:50:16.690Z,7.43
2019-03-28T09:52:44.103Z,8.27
2019-03-28T09:55:11.562Z,7.30
2019-03-28T09:57:38.976Z,7.53
2019-03-28T10:00:07.921Z,7.40
2019-03-28T10:02:35.373Z,7.00
2019-03-28T10:05:03.033Z,8.30
2019-03-28T10:07:30.440Z,8.00
2019-03-28T10:09:58.469Z,8.60
2019-03-28T10:12:25.904Z,8.00
2019-03-28T10:14:53.294Z,8.43
2019-03-28T10:17:20.717Z,7.63
2019-03-28T10:19:48.102Z,7.80
2019-03-28T10:22:15.518Z,7.37
2019-03-28T10:24:44.551Z,6.47
2019-03-28T10:27:12.000Z,6.37
2019-03-28T10:29:39.377Z,11.50
2019-03-28T10:32:06.792Z,7.73
2019-03-28T10:34:34.187Z,7.10
2019-03-28T10:37:01.645Z,8.87
2019-03-28T10:39:29.064Z,6.17
2019-03-28T10:41:56.579Z,7.37
2019-03-28T10:44:24.003Z,6.40
2019-03-28T10:46:51.452Z,8.30
2019-03-28T10:49:18.868Z,5.60
2019-03-28T10:51:46.328Z,7.70
2019-03-28T10:54:20.005Z,8.10
2019-03-28T10:56:51.730Z,6.80
2019-03-28T10:59:22.808Z,6.83
2019-03-28T11:01:49.082Z,6.03
2019-03-28T11:04:10.066Z,5.90
2019-03-28T11:06:37.514Z,7.77
2019-03-28T11:09:06.104Z,7.80
2019-03-28T11:11:33.554Z,6.73
2019-03-28T11:14:00.983Z,6.83
2019-03-28T11:16:29.408Z,7.63
2019-03-28T11:18:56.956Z,7.37
2019-03-28T11:21:24.453Z,8.77
2019-03-28T11:23:51.955Z,8.03
2019-03-28T11:26:19.372Z,8.40
2019-03-28T11:28:46.817Z,5.90
2019-03-28T11:31:14.241Z,7.50
2019-03-28T11:33:41.687Z,7.60
2019-03-28T11:36:09.184Z,7.50
2019-03-28T11:38:36.661Z,6.27
2019-03-28T11:41:04.083Z,6.77
2019-03-28T11:43:31.599Z,6.57
2019-03-28T11:45:59.091Z,6.40
2019-03-28T11:48:26.543Z,6.53
2019-03-28T11:50:53.971Z,6.97
2019-03-28T11:53:21.414Z,4.90
2019-03-28T11:55:49.082Z,4.90
2019-03-28T11:58:16.580Z,6.63
2019-03-28T12:00:44.005Z,6.77
2019-03-28T12:03:11.525Z,6.53
2019-03-28T12:05:38.945Z,5.30
2019-03-28T12:08:06.399Z,5.67
2019-03-28T12:10:33.879Z,4.50
2019-03-28T12:13:01.325Z,5.40
2019-03-28T12:15:28.820Z,5.73
2019-03-28T12:17:56.257Z,4.43
2019-03-28T12:20:23.674Z,5.23
2019-03-28T12:22:51.117Z,3.70
2019-03-28T12:25:18.541Z,3.87
2019-03-28T12:27:45.975Z,4.43
2019-03-28T12:30:15.938Z,4.27
2019-03-28T12:32:43.036Z,3.40
2019-03-28T12:35:10.525Z,3.30
2019-03-28T12:37:38.056Z,8.20
2019-03-28T12:40:06.044Z,4.00
2019-03-28T12:42:33.484Z,3.83
2019-03-28T12:45:00.904Z,3.90
2019-03-28T12:47:41.293Z,3.60
2019-03-28T12:49:57.485Z,3.77
2019-03-28T12:52:24.910Z,3.00
2019-03-28T12:54:52.358Z,3.73
2019-03-28T12:57:19.769Z,3.30
2019-03-28T12:59:47.216Z,3.80
2019-03-28T13:02:27.495Z,3.03
2019-03-28T13:04:43.717Z,3.33
2019-03-28T13:07:11.136Z,5.00
2019-03-28T13:09:38.654Z,5.17
2019-03-28T13:12:06.214Z,3.50
2019-03-28T13:14:33.660Z,3.70
2019-03-28T13:17:01.210Z,4.03
2019-03-28T13:19:28.652Z,3.87
2019-03-28T13:21:56.072Z,3.37
2019-03-28T13:24:23.517Z,3.00
2019-03-28T13:26:50.934Z,4.63
2019-03-28T13:29:18.384Z,4.63
2019-03-28T13:31:45.800Z,5.33
2019-03-28T13:34:13.241Z,3.90
2019-03-28T13:36:40.665Z,3.40
2019-03-28T13:39:08.103Z,4.60
2019-03-28T13:41:35.532Z,4.03
2019-03-28T13:44:02.969Z,4.20
2019-03-28T13:46:30.389Z,4.07
2019-03-28T13:48:57.906Z,4.47
2019-03-28T13:51:25.330Z,4.85
2019-03-28T13:53:53.836Z,4.80
2019-03-28T13:56:21.280Z,3.10
2019-03-28T13:58:48.725Z,4.43
2019-03-28T14:01:16.145Z,4.17
2019-03-28T14:03:43.728Z,3.70
2019-03-28T14:06:11.132Z,5.03
2019-03-28T14:08:38.558Z,3.73
2019-03-28T14:11:06.003Z,4.27
2019-03-28T14:13:33.435Z,4.60
2019-03-28T14:16:00.885Z,3.80
2019-03-28T14:18:28.305Z,3.73
2019-03-28T14:20:56.270Z,4.37
2019-03-28T14:23:23.683Z,3.70
2019-03-28T14:25:51.129Z,3.03
2019-03-28T14:28:18.550Z,3.10
2019-03-28T14:30:45.998Z,3.20
2019-03-28T14:33:15.882Z,3.33
2019-03-28T14:35:42.517Z,6.50
2019-03-28T14:38:09.946Z,4.80
2019-03-28T14:40:37.388Z,3.30
2019-03-28T14:43:04.796Z,3.10
2019-03-28T14:45:32.308Z,3.07
2019-03-28T14:47:59.726Z,3.70
2019-03-28T14:50:31.638Z,3.10
2019-03-28T14:52:59.050Z,3.27
2019-03-28T14:55:26.581Z,3.37
2019-03-28T14:57:54.014Z,3.50
2019-03-28T15:00:25.875Z,3.20
2019-03-28T15:02:53.297Z,3.77
2019-03-28T15:05:20.749Z,3.83
2019-03-28T15:07:48.170Z,3.60
2019-03-28T15:10:15.616Z,3.50
2019-03-28T15:12:43.025Z,3.80
2019-03-28T15:15:10.543Z,4.00
2019-03-28T15:17:37.972Z,3.43
2019-03-28T15:20:06.588Z,4.03
2019-03-28T15:22:34.005Z,3.47
2019-03-28T15:25:01.458Z,6.23
2019-03-28T15:27:28.876Z,3.57
2019-03-28T15:29:56.325Z,3.27
2019-03-28T15:32:23.741Z,3.00
2019-03-28T15:34:51.185Z,2.80
2019-03-28T15:37:18.600Z,2.63
2019-03-28T15:39:46.047Z,2.60
2019-03-28T15:42:13.453Z,3.10
2019-03-28T15:44:40.937Z,3.40
2019-03-28T15:47:08.335Z,2.00
2019-03-28T15:49:35.749Z,2.20
2019-03-28T15:52:03.471Z,2.20
2019-03-28T15:54:31.009Z,2.47
2019-03-28T15:56:58.812Z,2.70
2019-03-28T15:59:26.288Z,2.40
2019-03-28T16:01:53.812Z,3.03
2019-03-28T16:04:24.546Z,2.77
2019-03-28T16:06:50.469Z,2.50
2019-03-28T16:09:18.471Z,2.63
2019-03-28T16:11:46.143Z,3.27
2019-03-28T16:14:13.556Z,3.10
2019-03-28T16:16:41.006Z,2.70
2019-03-28T16:19:08.433Z,3.27
2019-03-28T16:21:36.247Z,3.47
2019-03-28T16:24:03.691Z,2.83
2019-03-28T16:26:31.137Z,3.53
2019-03-28T16:28:58.564Z,3.40
2019-03-28T16:31:26.009Z,3.03
2019-03-28T16:34:06.244Z,2.97
2019-03-28T16:36:22.584Z,3.10
2019-03-28T16:38:50.004Z,3.50
2019-03-28T16:41:17.451Z,3.10
2019-03-28T16:43:44.891Z,3.20
2019-03-28T16:46:12.344Z,2.62
2019-03-28T16:48:39.765Z,3.37
2019-03-28T16:51:07.222Z,3.00
2019-03-28T16:53:35.612Z,3.00
2019-03-28T16:56:03.194Z,2.90
2019-03-28T16:58:30.606Z,3.33
2019-03-28T17:00:58.045Z,3.23
2019-03-28T17:03:25.459Z,5.60
2019-03-28T17:05:52.925Z,11.23
2019-03-28T17:08:20.614Z,3.70
2019-03-28T17:10:48.801Z,3.20
2019-03-28T17:13:16.514Z,2.73
2019-03-28T17:15:43.930Z,3.40
2019-03-28T17:18:11.382Z,3.70
2019-03-28T17:20:38.796Z,3.40
2019-03-28T17:23:06.258Z,3.87
2019-03-28T17:25:33.674Z,4.17
2019-03-28T17:28:01.117Z,3.70
2019-03-28T17:30:28.526Z,3.77
2019-03-28T17:32:55.979Z,4.00
2019-03-28T17:35:23.398Z,3.53
2019-03-28T17:37:50.864Z,4.00
2019-03-28T17:40:18.293Z,3.83
2019-03-28T17:42:47.852Z,3.70
2019-03-28T17:45:14.885Z,3.97
2019-03-28T17:47:42.338Z,4.03
2019-03-28T17:50:09.929Z,3.90
2019-03-28T17:52:37.386Z,4.17
2019-03-28T17:55:05.780Z,4.20
2019-03-28T17:57:33.244Z,4.00
2019-03-28T18:00:00.674Z,3.40
2019-03-28T18:02:28.121Z,4.33
2019-03-28T18:05:08.175Z,4.30
2019-03-28T18:07:24.652Z,4.27
2019-03-28T18:09:52.088Z,4.23
2019-03-28T18:12:19.543Z,3.47
2019-03-28T18:14:47.038Z,4.10
2019-03-28T18:17:14.483Z,4.13
2019-03-28T18:19:41.915Z,3.73
2019-03-28T18:22:09.373Z,3.87
2019-03-28T18:24:36.951Z,4.97
2019-03-28T18:27:04.892Z,5.00
2019-03-28T18:29:35.904Z,5.17
2019-03-28T18:32:03.147Z,13.97
2019-03-28T18:34:30.764Z,6.47
2019-03-28T18:36:58.432Z,4.97
2019-03-28T18:39:25.852Z,5.30
2019-03-28T18:41:56.462Z,4.90
2019-03-28T18:44:22.443Z,4.67
2019-03-28T18:46:49.873Z,5.20
2019-03-28T18:49:17.331Z,4.77
2019-03-28T18:51:44.750Z,5.30
2019-03-28T18:54:12.199Z,4.67
2019-03-28T18:56:39.652Z,5.77
2019-03-28T18:59:07.075Z,5.50
2019-03-28T19:01:34.507Z,5.50
2019-03-28T19:04:01.962Z,5.53
2019-03-28T19:06:29.401Z,4.93
2019-03-28T19:08:56.927Z,4.90
2019-03-28T19:11:24.358Z,5.03
2019-03-28T19:13:51.810Z,5.07
2019-03-28T19:16:21.711Z,4.20
2019-03-28T19:18:48.330Z,5.03
2019-03-28T19:21:15.747Z,4.40
2019-03-28T19:23:43.206Z,4.60
2019-03-28T19:26:11.222Z,4.72
2019-03-28T19:28:38.769Z,4.07
2019-03-28T19:31:06.275Z,4.77
2019-03-28T19:33:33.723Z,4.77
2019-03-28T19:36:03.306Z,4.63
2019-03-28T19:38:31.225Z,4.60
2019-03-28T19:40:58.744Z,4.73
2019-03-28T19:43:26.353Z,5.67
2019-03-28T19:45:53.767Z,5.57
2019-03-28T19:48:21.211Z,5.70
2019-03-28T19:50:48.634Z,6.23
2019-03-28T19:53:16.094Z,6.20
2019-03-28T19:55:43.560Z,5.80
2019-03-28T19:58:13.510Z,6.77
2019-03-28T20:00:40.441Z,7.00
2019-03-28T20:03:07.952Z,5.73
2019-03-28T20:05:46.714Z,6.57
2019-03-28T20:08:14.999Z,6.50
2019-03-28T20:10:33.539Z,6.77
2019-03-28T20:13:00.958Z,7.47
2019-03-28T20:15:28.422Z,6.90
2019-03-28T20:17:55.841Z,6.57
2019-03-28T20:20:23.293Z,6.50
2019-03-28T20:22:50.790Z,7.10
2019-03-28T20:25:18.244Z,6.50
2019-03-28T20:27:45.698Z,7.80
2019-03-28T20:30:13.320Z,7.80
2019-03-28T20:32:40.768Z,7.03
2019-03-28T20:35:10.407Z,7.77
2019-03-28T20:37:37.947Z,8.17
2019-03-28T20:40:06.232Z,7.77
2019-03-28T20:42:34.928Z,7.63
2019-03-28T20:45:02.704Z,7.77
2019-03-28T20:47:30.121Z,7.23
2019-03-28T20:49:57.586Z,7.47
2019-03-28T20:52:25.015Z,7.80
2019-03-28T20:54:52.466Z,7.70
2019-03-28T20:57:19.891Z,7.17
2019-03-28T20:59:47.332Z,7.43
2019-03-28T21:02:14.762Z,8.97
2019-03-28T21:04:42.381Z,7.60
2019-03-28T21:07:09.868Z,7.50
2019-03-28T21:09:37.310Z,8.97
2019-03-28T21:12:04.733Z,8.60
2019-03-28T21:14:32.185Z,7.97
2019-03-28T21:16:59.673Z,8.90
2019-03-28T21:19:27.128Z,8.97
2019-03-28T21:21:55.025Z,8.70
2019-03-28T21:24:22.649Z,9.40
2019-03-28T21:26:50.069Z,8.33
2019-03-28T21:29:17.464Z,9.57
2019-03-28T21:31:49.971Z,8.90
2019-03-28T21:34:13.957Z,8.17
2019-03-28T21:36:41.360Z,8.30
2019-03-28T21:39:09.045Z,8.30
2019-03-28T21:41:36.666Z,8.40
2019-03-28T21:44:04.045Z,9.70
2019-03-28T21:46:32.215Z,8.50
2019-03-28T21:48:59.546Z,7.17
2019-03-28T21:51:26.969Z,9.43
2019-03-28T21:53:54.348Z,9.73
2019-03-28T21:56:21.744Z,8.80
2019-03-28T21:58:49.126Z,8.50
2019-03-28T22:01:16.545Z,9.13
2019-03-28T22:03:43.996Z,8.83
2019-03-28T22:06:11.423Z,10.00
2019-03-28T22:08:38.918Z,9.33
2019-03-28T22:11:06.335Z,8.77
2019-03-28T22:13:33.713Z,8.63
2019-03-28T22:16:01.127Z,9.00
2019-03-28T22:18:28.509Z,8.90
2019-03-28T22:20:55.924Z,9.40
2019-03-28T22:23:23.317Z,10.37
2019-03-28T22:25:50.736Z,10.03
2019-03-28T22:28:18.118Z,9.70
2019-03-28T22:30:45.530Z,9.43
2019-03-28T22:33:12.923Z,10.00
2019-03-28T22:35:40.337Z,10.17
2019-03-28T22:38:07.745Z,9.73
2019-03-28T22:40:35.228Z,10.50
2019-03-28T22:43:02.615Z,9.30
2019-03-28T22:45:30.033Z,11.40
2019-03-28T22:48:10.176Z,10.73
2019-03-28T22:50:26.549Z,10.83
2019-03-28T22:52:53.933Z,10.90
2019-03-28T22:55:21.321Z,10.07
2019-03-28T22:57:48.742Z,10.07
2019-03-28T23:00:16.299Z,10.77
2019-03-28T23:02:43.801Z,9.83
2019-03-28T23:05:11.441Z,11.10
2019-03-28T23:07:38.860Z,10.83
2019-03-28T23:10:07.117Z,11.33
2019-03-28T23:12:34.842Z,11.53
2019-03-28T23:15:02.454Z,10.20
2019-03-28T23:17:29.867Z,11.70
2019-03-28T23:19:57.272Z,10.80
2019-03-28T23:22:25.273Z,10.23
2019-03-28T23:24:52.660Z,9.23
2019-03-28T23:27:20.082Z,11.20
2019-03-28T23:29:47.469Z,9.20
2019-03-28T23:32:14.889Z,10.53
2019-03-28T23:34:42.265Z,9.70
2019-03-28T23:37:09.685Z,10.80
2019-03-28T23:39:37.725Z,9.70
2019-03-28T23:42:05.183Z,10.17
2019-03-28T23:44:32.563Z,10.13
2019-03-28T23:46:59.982Z,9.90
2019-03-28T23:49:27.372Z,11.03
2019-03-28T23:51:54.791Z,10.58
2019-03-28T23:54:22.193Z,9.40
2019-03-28T23:56:49.605Z,10.07
2019-03-28T23:59:16.994Z,11.30
